sensor_id;sensor_type;location;lat;lon;timestamp;P1;durP1;ratioP1;P2;durP2;ratioP2
17141;SDS011;32805;53.556;9.944;2022-09-27T00:02:04;2.00;;;1.90;;
17141;SDS011;32805;53.556;9.944;2022-09-27T00:04:32;1.85;;;1.67;;
17141;SDS011;32805;53.556;9.944;2022-09-27T00:07:00;1.92;;;1.75;;
17141;SDS011;32805;53.556;9.944;2022-09-27T00:09:30;2.05;;;1.95;;
17141;SDS011;32805;53.556;9.944;2022-09-27T00:12:00;3.08;;;2.30;;
17141;SDS011;32805;53.556;9.944;2022-09-27T00:14:29;4.05;;;2.67;;
17141;SDS011;32805;53.556;9.944;2022-09-27T00:16:57;3.15;;;2.35;;
17141;SDS011;32805;53.556;9.944;2022-09-27T00:19:24;2.58;;;2.00;;
17141;SDS011;32805;53.556;9.944;2022-09-27T00:21:52;2.35;;;2.10;;
17141;SDS011;32805;53.556;9.944;2022-09-27T00:24:21;2.22;;;1.85;;
17141;SDS011;32805;53.556;9.944;2022-09-27T00:26:50;2.40;;;1.90;;
17141;SDS011;32805;53.556;9.944;2022-09-27T00:29:18;2.55;;;1.95;;
17141;SDS011;32805;53.556;9.944;2022-09-27T00:31:46;2.08;;;1.88;;
17141;SDS011;32805;53.556;9.944;2022-09-27T00:34:15;2.65;;;2.10;;
17141;SDS011;32805;53.556;9.944;2022-09-27T00:36:45;2.22;;;2.03;;
17141;SDS011;32805;53.556;9.944;2022-09-27T00:39:14;1.70;;;1.60;;
17141;SDS011;32805;53.556;9.944;2022-09-27T00:41:42;2.60;;;2.00;;
17141;SDS011;32805;53.556;9.944;2022-09-27T00:47:22;3.08;;;1.98;;
17141;SDS011;32805;53.556;9.944;2022-09-27T00:49:53;2.22;;;1.80;;
17141;SDS011;32805;53.556;9.944;2022-09-27T00:52:24;1.67;;;1.50;;
17141;SDS011;32805;53.556;9.944;2022-09-27T00:54:56;2.58;;;1.60;;
17141;SDS011;32805;53.556;9.944;2022-09-27T00:57:27;1.70;;;1.60;;
17141;SDS011;32805;53.556;9.944;2022-09-27T00:59:58;3.85;;;1.90;;
17141;SDS011;32805;53.556;9.944;2022-09-27T01:02:29;2.28;;;1.95;;
17141;SDS011;32805;53.556;9.944;2022-09-27T01:04:57;2.38;;;1.60;;
17141;SDS011;32805;53.556;9.944;2022-09-27T01:07:26;2.70;;;1.90;;
17141;SDS011;32805;53.556;9.944;2022-09-27T01:09:55;2.17;;;1.98;;
17141;SDS011;32805;53.556;9.944;2022-09-27T01:12:25;1.70;;;1.52;;
17141;SDS011;32805;53.556;9.944;2022-09-27T01:15:07;2.42;;;1.85;;
17141;SDS011;32805;53.556;9.944;2022-09-27T01:17:48;1.88;;;1.77;;
17141;SDS011;32805;53.556;9.944;2022-09-27T01:26:41;1.50;;;1.40;;
17141;SDS011;32805;53.556;9.944;2022-09-27T01:29:28;1.40;;;1.30;;
17141;SDS011;32805;53.556;9.944;2022-09-27T01:32:11;1.52;;;1.42;;
17141;SDS011;32805;53.556;9.944;2022-09-27T01:34:47;1.70;;;1.27;;
17141;SDS011;32805;53.556;9.944;2022-09-27T01:37:30;1.27;;;1.17;;
17141;SDS011;32805;53.556;9.944;2022-09-27T01:40:06;3.05;;;1.40;;
17141;SDS011;32805;53.556;9.944;2022-09-27T01:42:58;2.90;;;1.42;;
17141;SDS011;32805;53.556;9.944;2022-09-27T01:45:35;2.20;;;1.40;;
17141;SDS011;32805;53.556;9.944;2022-09-27T01:48:17;1.52;;;1.40;;
17141;SDS011;32805;53.556;9.944;2022-09-27T01:50:51;1.40;;;1.30;;
17141;SDS011;32805;53.556;9.944;2022-09-27T01:53:24;1.45;;;1.35;;
17141;SDS011;32805;53.556;9.944;2022-09-27T01:56:10;1.65;;;1.48;;
17141;SDS011;32805;53.556;9.944;2022-09-27T01:58:53;1.60;;;1.25;;
17141;SDS011;32805;53.556;9.944;2022-09-27T02:01:25;1.83;;;1.20;;
17141;SDS011;32805;53.556;9.944;2022-09-27T02:03:56;2.30;;;1.40;;
17141;SDS011;32805;53.556;9.944;2022-09-27T02:06:47;1.55;;;1.40;;
17141;SDS011;32805;53.556;9.944;2022-09-27T02:09:24;1.73;;;1.63;;
17141;SDS011;32805;53.556;9.944;2022-09-27T02:12:09;1.48;;;1.20;;
17141;SDS011;32805;53.556;9.944;2022-09-27T02:14:43;1.58;;;1.48;;
17141;SDS011;32805;53.556;9.944;2022-09-27T02:17:17;1.48;;;1.38;;
17141;SDS011;32805;53.556;9.944;2022-09-27T02:19:53;1.30;;;1.20;;
17141;SDS011;32805;53.556;9.944;2022-09-27T02:22:34;1.35;;;1.25;;
17141;SDS011;32805;53.556;9.944;2022-09-27T02:25:09;2.03;;;1.20;;
17141;SDS011;32805;53.556;9.944;2022-09-27T02:27:45;1.25;;;1.15;;
17141;SDS011;32805;53.556;9.944;2022-09-27T02:30:18;2.22;;;1.40;;
17141;SDS011;32805;53.556;9.944;2022-09-27T02:32:54;1.33;;;1.20;;
17141;SDS011;32805;53.556;9.944;2022-09-27T02:35:26;2.63;;;1.40;;
17141;SDS011;32805;53.556;9.944;2022-09-27T02:37:57;1.38;;;1.10;;
17141;SDS011;32805;53.556;9.944;2022-09-27T02:40:28;1.15;;;1.05;;
17141;SDS011;32805;53.556;9.944;2022-09-27T02:42:58;1.35;;;1.25;;
17141;SDS011;32805;53.556;9.944;2022-09-27T02:45:26;1.38;;;1.20;;
17141;SDS011;32805;53.556;9.944;2022-09-27T02:48:04;1.60;;;1.15;;
17141;SDS011;32805;53.556;9.944;2022-09-27T02:51:03;1.42;;;1.33;;
17141;SDS011;32805;53.556;9.944;2022-09-27T02:53:44;2.33;;;1.42;;
17141;SDS011;32805;53.556;9.944;2022-09-27T02:56:46;1.40;;;1.20;;
17141;SDS011;32805;53.556;9.944;2022-09-27T03:00:03;2.22;;;1.20;;
17141;SDS011;32805;53.556;9.944;2022-09-27T03:02:49;2.15;;;1.30;;
17141;SDS011;32805;53.556;9.944;2022-09-27T03:05:23;1.40;;;1.30;;
17141;SDS011;32805;53.556;9.944;2022-09-27T03:07:55;1.58;;;1.48;;
17141;SDS011;32805;53.556;9.944;2022-09-27T03:10:24;1.95;;;1.65;;
17141;SDS011;32805;53.556;9.944;2022-09-27T03:12:53;3.95;;;2.00;;
17141;SDS011;32805;53.556;9.944;2022-09-27T03:15:22;1.90;;;1.60;;
17141;SDS011;32805;53.556;9.944;2022-09-27T03:17:59;2.28;;;1.88;;
17141;SDS011;32805;53.556;9.944;2022-09-27T03:20:59;3.90;;;1.85;;
17141;SDS011;32805;53.556;9.944;2022-09-27T03:23:28;1.50;;;1.40;;
17141;SDS011;32805;53.556;9.944;2022-09-27T03:25:56;2.30;;;1.70;;
17141;SDS011;32805;53.556;9.944;2022-09-27T03:28:25;4.35;;;1.65;;
17141;SDS011;32805;53.556;9.944;2022-09-27T03:30:55;2.25;;;1.50;;
17141;SDS011;32805;53.556;9.944;2022-09-27T03:33:52;1.83;;;1.30;;
17141;SDS011;32805;53.556;9.944;2022-09-27T03:36:20;1.50;;;1.40;;
17141;SDS011;32805;53.556;9.944;2022-09-27T03:38:49;1.73;;;1.27;;
17141;SDS011;32805;53.556;9.944;2022-09-27T03:41:18;3.20;;;1.45;;
17141;SDS011;32805;53.556;9.944;2022-09-27T03:43:47;3.08;;;1.60;;
17141;SDS011;32805;53.556;9.944;2022-09-27T03:46:14;3.92;;;2.40;;
17141;SDS011;32805;53.556;9.944;2022-09-27T03:48:42;2.97;;;1.83;;
17141;SDS011;32805;53.556;9.944;2022-09-27T03:51:10;1.73;;;1.63;;
17141;SDS011;32805;53.556;9.944;2022-09-27T03:53:38;2.60;;;1.63;;
17141;SDS011;32805;53.556;9.944;2022-09-27T03:56:07;5.32;;;2.33;;
17141;SDS011;32805;53.556;9.944;2022-09-27T03:58:35;2.72;;;1.73;;
17141;SDS011;32805;53.556;9.944;2022-09-27T04:01:04;3.88;;;2.17;;
17141;SDS011;32805;53.556;9.944;2022-09-27T04:03:33;2.85;;;1.83;;
17141;SDS011;32805;53.556;9.944;2022-09-27T04:06:33;2.40;;;1.65;;
17141;SDS011;32805;53.556;9.944;2022-09-27T04:09:02;3.40;;;2.20;;
17141;SDS011;32805;53.556;9.944;2022-09-27T04:11:54;2.60;;;1.83;;
17141;SDS011;32805;53.556;9.944;2022-09-27T04:14:22;2.13;;;1.92;;
17141;SDS011;32805;53.556;9.944;2022-09-27T04:17:12;4.93;;;1.85;;
17141;SDS011;32805;53.556;9.944;2022-09-27T04:19:59;4.15;;;2.40;;
17141;SDS011;32805;53.556;9.944;2022-09-27T04:22:29;3.95;;;1.88;;
17141;SDS011;32805;53.556;9.944;2022-09-27T04:24:57;2.08;;;1.88;;
17141;SDS011;32805;53.556;9.944;2022-09-27T04:27:38;3.28;;;2.22;;
17141;SDS011;32805;53.556;9.944;2022-09-27T04:30:11;4.05;;;2.40;;
17141;SDS011;32805;53.556;9.944;2022-09-27T04:33:02;2.85;;;2.42;;
17141;SDS011;32805;53.556;9.944;2022-09-27T04:35:49;2.95;;;2.08;;
17141;SDS011;32805;53.556;9.944;2022-09-27T04:38:38;10.38;;;4.50;;
17141;SDS011;32805;53.556;9.944;2022-09-27T04:41:07;4.72;;;3.28;;
17141;SDS011;32805;53.556;9.944;2022-09-27T04:43:39;3.53;;;3.20;;
17141;SDS011;32805;53.556;9.944;2022-09-27T04:46:07;4.03;;;3.42;;
17141;SDS011;32805;53.556;9.944;2022-09-27T04:48:35;4.43;;;3.75;;
17141;SDS011;32805;53.556;9.944;2022-09-27T04:51:03;4.35;;;3.95;;
17141;SDS011;32805;53.556;9.944;2022-09-27T04:53:31;5.15;;;4.60;;
17141;SDS011;32805;53.556;9.944;2022-09-27T04:56:00;5.80;;;5.20;;
17141;SDS011;32805;53.556;9.944;2022-09-27T04:58:32;7.60;;;5.07;;
17141;SDS011;32805;53.556;9.944;2022-09-27T05:01:03;5.80;;;5.15;;
17141;SDS011;32805;53.556;9.944;2022-09-27T05:03:47;6.38;;;5.25;;
17141;SDS011;32805;53.556;9.944;2022-09-27T05:06:15;6.85;;;5.93;;
17141;SDS011;32805;53.556;9.944;2022-09-27T05:08:43;6.80;;;5.93;;
17141;SDS011;32805;53.556;9.944;2022-09-27T05:11:22;9.30;;;6.60;;
17141;SDS011;32805;53.556;9.944;2022-09-27T05:14:09;8.57;;;6.15;;
17141;SDS011;32805;53.556;9.944;2022-09-27T05:16:48;7.20;;;5.95;;
17141;SDS011;32805;53.556;9.944;2022-09-27T05:19:40;10.02;;;5.82;;
17141;SDS011;32805;53.556;9.944;2022-09-27T05:22:18;5.93;;;4.95;;
17141;SDS011;32805;53.556;9.944;2022-09-27T05:24:46;6.97;;;5.60;;
17141;SDS011;32805;53.556;9.944;2022-09-27T05:27:13;6.63;;;5.60;;
17141;SDS011;32805;53.556;9.944;2022-09-27T05:29:45;8.38;;;7.28;;
17141;SDS011;32805;53.556;9.944;2022-09-27T05:32:27;9.57;;;8.35;;
17141;SDS011;32805;53.556;9.944;2022-09-27T05:35:18;10.98;;;8.50;;
17141;SDS011;32805;53.556;9.944;2022-09-27T05:37:52;12.25;;;8.77;;
17141;SDS011;32805;53.556;9.944;2022-09-27T05:40:22;12.25;;;9.05;;
17141;SDS011;32805;53.556;9.944;2022-09-27T05:43:09;11.02;;;8.68;;
17141;SDS011;32805;53.556;9.944;2022-09-27T05:45:37;12.23;;;9.63;;
17141;SDS011;32805;53.556;9.944;2022-09-27T05:48:07;12.38;;;10.00;;
17141;SDS011;32805;53.556;9.944;2022-09-27T05:50:42;12.63;;;9.80;;
17141;SDS011;32805;53.556;9.944;2022-09-27T05:53:11;15.52;;;11.20;;
17141;SDS011;32805;53.556;9.944;2022-09-27T05:55:41;13.98;;;9.57;;
17141;SDS011;32805;53.556;9.944;2022-09-27T05:58:10;16.02;;;10.10;;
17141;SDS011;32805;53.556;9.944;2022-09-27T06:00:45;15.82;;;9.57;;
17141;SDS011;32805;53.556;9.944;2022-09-27T06:03:34;12.07;;;8.23;;
17141;SDS011;32805;53.556;9.944;2022-09-27T06:06:21;11.80;;;8.45;;
17141;SDS011;32805;53.556;9.944;2022-09-27T06:08:53;11.05;;;8.27;;
17141;SDS011;32805;53.556;9.944;2022-09-27T06:11:23;13.82;;;9.07;;
17141;SDS011;32805;53.556;9.944;2022-09-27T06:13:51;11.85;;;8.43;;
17141;SDS011;32805;53.556;9.944;2022-09-27T06:16:19;10.95;;;7.80;;
17141;SDS011;32805;53.556;9.944;2022-09-27T06:18:48;9.57;;;7.65;;
17141;SDS011;32805;53.556;9.944;2022-09-27T06:21:17;9.48;;;7.13;;
17141;SDS011;32805;53.556;9.944;2022-09-27T06:23:52;10.00;;;6.53;;
17141;SDS011;32805;53.556;9.944;2022-09-27T06:26:29;9.95;;;6.50;;
17141;SDS011;32805;53.556;9.944;2022-09-27T06:29:08;9.73;;;6.68;;
17141;SDS011;32805;53.556;9.944;2022-09-27T06:31:40;7.35;;;5.90;;
17141;SDS011;32805;53.556;9.944;2022-09-27T06:34:30;7.57;;;6.10;;
17141;SDS011;32805;53.556;9.944;2022-09-27T06:36:58;6.70;;;5.55;;
17141;SDS011;32805;53.556;9.944;2022-09-27T06:39:27;6.43;;;4.78;;
17141;SDS011;32805;53.556;9.944;2022-09-27T06:42:21;5.10;;;4.13;;
17141;SDS011;32805;53.556;9.944;2022-09-27T06:45:02;5.97;;;4.25;;
17141;SDS011;32805;53.556;9.944;2022-09-27T06:47:55;5.03;;;4.38;;
17141;SDS011;32805;53.556;9.944;2022-09-27T06:50:52;3.95;;;3.38;;
17141;SDS011;32805;53.556;9.944;2022-09-27T06:53:23;6.22;;;3.88;;
17141;SDS011;32805;53.556;9.944;2022-09-27T06:55:56;3.70;;;3.17;;
17141;SDS011;32805;53.556;9.944;2022-09-27T06:58:43;2.85;;;2.55;;
17141;SDS011;32805;53.556;9.944;2022-09-27T07:01:44;3.70;;;2.65;;
17141;SDS011;32805;53.556;9.944;2022-09-27T07:04:31;3.33;;;2.33;;
17141;SDS011;32805;53.556;9.944;2022-09-27T07:07:24;2.40;;;2.20;;
17141;SDS011;32805;53.556;9.944;2022-09-27T07:09:51;2.55;;;2.10;;
17141;SDS011;32805;53.556;9.944;2022-09-27T07:12:19;2.53;;;2.05;;
17141;SDS011;32805;53.556;9.944;2022-09-27T07:14:51;2.15;;;1.95;;
17141;SDS011;32805;53.556;9.944;2022-09-27T07:17:26;2.42;;;2.17;;
17141;SDS011;32805;53.556;9.944;2022-09-27T07:20:00;2.92;;;1.65;;
17141;SDS011;32805;53.556;9.944;2022-09-27T07:22:30;1.60;;;1.10;;
17141;SDS011;32805;53.556;9.944;2022-09-27T07:25:01;1.40;;;1.08;;
17141;SDS011;32805;53.556;9.944;2022-09-27T07:27:29;1.23;;;0.95;;
17141;SDS011;32805;53.556;9.944;2022-09-27T07:29:58;0.80;;;0.80;;
17141;SDS011;32805;53.556;9.944;2022-09-27T07:32:28;3.42;;;1.08;;
17141;SDS011;32805;53.556;9.944;2022-09-27T07:34:59;1.10;;;0.80;;
17141;SDS011;32805;53.556;9.944;2022-09-27T07:37:31;1.20;;;1.10;;
17141;SDS011;32805;53.556;9.944;2022-09-27T07:40:11;1.45;;;1.25;;
17141;SDS011;32805;53.556;9.944;2022-09-27T07:42:45;2.45;;;1.48;;
17141;SDS011;32805;53.556;9.944;2022-09-27T07:45:16;1.58;;;1.48;;
17141;SDS011;32805;53.556;9.944;2022-09-27T07:48:03;1.75;;;1.65;;
17141;SDS011;32805;53.556;9.944;2022-09-27T07:50:51;3.55;;;1.80;;
17141;SDS011;32805;53.556;9.944;2022-09-27T07:53:41;2.17;;;1.50;;
17141;SDS011;32805;53.556;9.944;2022-09-27T07:56:32;1.35;;;1.25;;
17141;SDS011;32805;53.556;9.944;2022-09-27T07:59:02;1.63;;;1.52;;
17141;SDS011;32805;53.556;9.944;2022-09-27T08:01:37;2.30;;;1.88;;
17141;SDS011;32805;53.556;9.944;2022-09-27T08:04:08;2.33;;;1.85;;
17141;SDS011;32805;53.556;9.944;2022-09-27T08:06:36;2.00;;;1.70;;
17141;SDS011;32805;53.556;9.944;2022-09-27T08:09:12;2.85;;;2.10;;
17141;SDS011;32805;53.556;9.944;2022-09-27T08:11:50;2.00;;;1.80;;
17141;SDS011;32805;53.556;9.944;2022-09-27T08:14:28;3.45;;;1.98;;
17141;SDS011;32805;53.556;9.944;2022-09-27T08:17:14;2.22;;;2.03;;
17141;SDS011;32805;53.556;9.944;2022-09-27T08:20:05;2.78;;;2.10;;
17141;SDS011;32805;53.556;9.944;2022-09-27T08:23:03;2.65;;;1.83;;
17141;SDS011;32805;53.556;9.944;2022-09-27T08:25:44;3.13;;;1.83;;
17141;SDS011;32805;53.556;9.944;2022-09-27T08:28:29;6.88;;;2.00;;
17141;SDS011;32805;53.556;9.944;2022-09-27T08:31:20;2.38;;;1.50;;
17141;SDS011;32805;53.556;9.944;2022-09-27T08:33:51;4.18;;;1.67;;
17141;SDS011;32805;53.556;9.944;2022-09-27T08:36:22;1.85;;;1.30;;
17141;SDS011;32805;53.556;9.944;2022-09-27T08:38:57;3.58;;;2.08;;
17141;SDS011;32805;53.556;9.944;2022-09-27T08:41:36;1.27;;;1.10;;
17141;SDS011;32805;53.556;9.944;2022-09-27T08:44:08;2.85;;;1.65;;
17141;SDS011;32805;53.556;9.944;2022-09-27T08:47:04;2.17;;;1.30;;
17141;SDS011;32805;53.556;9.944;2022-09-27T08:49:44;2.45;;;1.45;;
17141;SDS011;32805;53.556;9.944;2022-09-27T08:52:17;1.73;;;1.60;;
17141;SDS011;32805;53.556;9.944;2022-09-27T08:54:47;2.22;;;1.83;;
17141;SDS011;32805;53.556;9.944;2022-09-27T08:57:18;2.65;;;1.88;;
17141;SDS011;32805;53.556;9.944;2022-09-27T08:59:52;2.28;;;1.58;;
17141;SDS011;32805;53.556;9.944;2022-09-27T09:02:33;2.00;;;1.73;;
17141;SDS011;32805;53.556;9.944;2022-09-27T09:05:05;2.33;;;1.65;;
17141;SDS011;32805;53.556;9.944;2022-09-27T09:07:39;1.90;;;1.70;;
17141;SDS011;32805;53.556;9.944;2022-09-27T09:10:21;2.35;;;1.52;;
17141;SDS011;32805;53.556;9.944;2022-09-27T09:13:22;2.20;;;1.30;;
17141;SDS011;32805;53.556;9.944;2022-09-27T09:16:05;1.50;;;1.40;;
17141;SDS011;32805;53.556;9.944;2022-09-27T09:18:51;1.95;;;1.30;;
17141;SDS011;32805;53.556;9.944;2022-09-27T09:21:42;1.65;;;1.30;;
17141;SDS011;32805;53.556;9.944;2022-09-27T09:24:33;2.38;;;1.60;;
17141;SDS011;32805;53.556;9.944;2022-09-27T09:27:15;3.47;;;1.33;;
17141;SDS011;32805;53.556;9.944;2022-09-27T09:29:57;1.75;;;1.38;;
17141;SDS011;32805;53.556;9.944;2022-09-27T09:32:43;2.35;;;1.48;;
17141;SDS011;32805;53.556;9.944;2022-09-27T09:35:24;2.75;;;1.60;;
17141;SDS011;32805;53.556;9.944;2022-09-27T09:37:55;1.85;;;1.48;;
17141;SDS011;32805;53.556;9.944;2022-09-27T09:40:33;2.78;;;1.60;;
17141;SDS011;32805;53.556;9.944;2022-09-27T09:43:12;1.92;;;1.65;;
17141;SDS011;32805;53.556;9.944;2022-09-27T09:48:51;2.63;;;1.60;;
17141;SDS011;32805;53.556;9.944;2022-09-27T09:51:27;4.03;;;2.15;;
17141;SDS011;32805;53.556;9.944;2022-09-27T09:54:06;2.20;;;1.40;;
17141;SDS011;32805;53.556;9.944;2022-09-27T09:56:44;1.80;;;1.70;;
17141;SDS011;32805;53.556;9.944;2022-09-27T09:59:23;2.83;;;1.65;;
17141;SDS011;32805;53.556;9.944;2022-09-27T10:02:22;2.58;;;1.58;;
17141;SDS011;32805;53.556;9.944;2022-09-27T10:05:04;3.47;;;1.70;;
17141;SDS011;32805;53.556;9.944;2022-09-27T10:07:35;2.53;;;1.70;;
17141;SDS011;32805;53.556;9.944;2022-09-27T10:10:05;1.70;;;1.60;;
17141;SDS011;32805;53.556;9.944;2022-09-27T10:12:54;2.55;;;1.65;;
17141;SDS011;32805;53.556;9.944;2022-09-27T10:15:31;2.20;;;1.88;;
17141;SDS011;32805;53.556;9.944;2022-09-27T10:18:03;2.80;;;1.63;;
17141;SDS011;32805;53.556;9.944;2022-09-27T10:20:35;2.00;;;1.60;;
17141;SDS011;32805;53.556;9.944;2022-09-27T10:23:10;2.67;;;2.22;;
17141;SDS011;32805;53.556;9.944;2022-09-27T10:26:06;2.85;;;1.38;;
17141;SDS011;32805;53.556;9.944;2022-09-27T10:28:43;1.60;;;1.50;;
17141;SDS011;32805;53.556;9.944;2022-09-27T10:31:34;2.88;;;1.85;;
17141;SDS011;32805;53.556;9.944;2022-09-27T10:34:19;4.15;;;1.80;;
17141;SDS011;32805;53.556;9.944;2022-09-27T10:37:01;2.15;;;1.45;;
17141;SDS011;32805;53.556;9.944;2022-09-27T10:39:33;1.85;;;1.50;;
17141;SDS011;32805;53.556;9.944;2022-09-27T10:42:14;2.33;;;1.77;;
17141;SDS011;32805;53.556;9.944;2022-09-27T10:44:55;1.35;;;1.00;;
17141;SDS011;32805;53.556;9.944;2022-09-27T10:47:33;1.85;;;1.40;;
17141;SDS011;32805;53.556;9.944;2022-09-27T10:50:22;1.17;;;1.00;;
17141;SDS011;32805;53.556;9.944;2022-09-27T10:53:22;1.50;;;1.30;;
17141;SDS011;32805;53.556;9.944;2022-09-27T10:56:05;1.55;;;1.45;;
17141;SDS011;32805;53.556;9.944;2022-09-27T10:58:34;1.90;;;1.25;;
17141;SDS011;32805;53.556;9.944;2022-09-27T11:01:07;1.67;;;1.10;;
17141;SDS011;32805;53.556;9.944;2022-09-27T11:04:04;1.27;;;1.17;;
17141;SDS011;32805;53.556;9.944;2022-09-27T11:06:35;2.17;;;1.13;;
17141;SDS011;32805;53.556;9.944;2022-09-27T11:09:14;1.50;;;1.38;;
17141;SDS011;32805;53.556;9.944;2022-09-27T11:11:49;1.80;;;1.30;;
17141;SDS011;32805;53.556;9.944;2022-09-27T11:14:20;2.85;;;1.35;;
17141;SDS011;32805;53.556;9.944;2022-09-27T11:16:54;1.40;;;1.30;;
17141;SDS011;32805;53.556;9.944;2022-09-27T11:19:47;1.92;;;1.50;;
17141;SDS011;32805;53.556;9.944;2022-09-27T11:26:03;1.48;;;1.38;;
17141;SDS011;32805;53.556;9.944;2022-09-27T11:28:49;1.00;;;1.00;;
17141;SDS011;32805;53.556;9.944;2022-09-27T11:31:47;1.48;;;1.05;;
17141;SDS011;32805;53.556;9.944;2022-09-27T11:34:55;2.25;;;1.02;;
17141;SDS011;32805;53.556;9.944;2022-09-27T11:37:42;1.88;;;1.20;;
17141;SDS011;32805;53.556;9.944;2022-09-27T11:40:25;1.15;;;1.02;;
17141;SDS011;32805;53.556;9.944;2022-09-27T11:43:10;1.00;;;1.00;;
17141;SDS011;32805;53.556;9.944;2022-09-27T11:45:54;1.73;;;1.15;;
17141;SDS011;32805;53.556;9.944;2022-09-27T11:51:54;2.28;;;1.25;;
17141;SDS011;32805;53.556;9.944;2022-09-27T11:54:44;1.70;;;1.33;;
17141;SDS011;32805;53.556;9.944;2022-09-27T11:57:35;1.58;;;0.93;;
17141;SDS011;32805;53.556;9.944;2022-09-27T12:00:17;2.03;;;1.13;;
17141;SDS011;32805;53.556;9.944;2022-09-27T12:06:52;2.15;;;1.27;;
17141;SDS011;32805;53.556;9.944;2022-09-27T12:09:29;1.65;;;1.35;;
17141;SDS011;32805;53.556;9.944;2022-09-27T12:12:02;2.53;;;0.93;;
17141;SDS011;32805;53.556;9.944;2022-09-27T12:14:37;1.67;;;0.90;;
17141;SDS011;32805;53.556;9.944;2022-09-27T12:17:11;0.82;;;0.82;;
17141;SDS011;32805;53.556;9.944;2022-09-27T12:19:45;1.33;;;0.98;;
17141;SDS011;32805;53.556;9.944;2022-09-27T12:22:20;0.80;;;0.80;;
17141;SDS011;32805;53.556;9.944;2022-09-27T12:25:19;1.95;;;1.10;;
17141;SDS011;32805;53.556;9.944;2022-09-27T12:28:08;1.20;;;0.90;;
17141;SDS011;32805;53.556;9.944;2022-09-27T12:30:43;1.10;;;0.98;;
17141;SDS011;32805;53.556;9.944;2022-09-27T12:33:38;1.67;;;0.77;;
17141;SDS011;32805;53.556;9.944;2022-09-27T12:36:13;1.35;;;0.90;;
17141;SDS011;32805;53.556;9.944;2022-09-27T12:38:45;1.73;;;1.02;;
17141;SDS011;32805;53.556;9.944;2022-09-27T12:41:22;2.83;;;1.33;;
17141;SDS011;32805;53.556;9.944;2022-09-27T12:44:11;2.45;;;1.15;;
17141;SDS011;32805;53.556;9.944;2022-09-27T12:46:56;1.60;;;1.00;;
17141;SDS011;32805;53.556;9.944;2022-09-27T12:49:32;2.05;;;0.82;;
17141;SDS011;32805;53.556;9.944;2022-09-27T12:52:13;1.20;;;0.82;;
17141;SDS011;32805;53.556;9.944;2022-09-27T12:54:57;1.85;;;1.27;;
17141;SDS011;32805;53.556;9.944;2022-09-27T12:57:46;0.70;;;0.70;;
17141;SDS011;32805;53.556;9.944;2022-09-27T13:00:27;0.77;;;0.60;;
17141;SDS011;32805;53.556;9.944;2022-09-27T13:03:21;1.27;;;0.60;;
17141;SDS011;32805;53.556;9.944;2022-09-27T13:06:23;0.50;;;0.50;;
17141;SDS011;32805;53.556;9.944;2022-09-27T13:09:12;1.98;;;0.52;;
17141;SDS011;32805;53.556;9.944;2022-09-27T13:12:01;0.85;;;0.60;;
17141;SDS011;32805;53.556;9.944;2022-09-27T13:14:39;1.73;;;0.68;;
17141;SDS011;32805;53.556;9.944;2022-09-27T13:20:38;1.83;;;0.60;;
17141;SDS011;32805;53.556;9.944;2022-09-27T13:29:30;2.38;;;0.68;;
17141;SDS011;32805;53.556;9.944;2022-09-27T13:32:13;0.50;;;0.50;;
17141;SDS011;32805;53.556;9.944;2022-09-27T13:35:08;0.93;;;0.60;;
17141;SDS011;32805;53.556;9.944;2022-09-27T13:37:50;1.63;;;0.80;;
17141;SDS011;32805;53.556;9.944;2022-09-27T13:40:32;0.80;;;0.50;;
17141;SDS011;32805;53.556;9.944;2022-09-27T13:46:28;0.63;;;0.63;;
17141;SDS011;32805;53.556;9.944;2022-09-27T13:49:00;1.13;;;0.50;;
17141;SDS011;32805;53.556;9.944;2022-09-27T13:51:56;0.70;;;0.50;;
17141;SDS011;32805;53.556;9.944;2022-09-27T13:54:37;0.80;;;0.60;;
17141;SDS011;32805;53.556;9.944;2022-09-27T14:00:16;1.48;;;0.70;;
17141;SDS011;32805;53.556;9.944;2022-09-27T14:02:54;1.67;;;0.90;;
17141;SDS011;32805;53.556;9.944;2022-09-27T14:05:29;2.88;;;1.40;;
17141;SDS011;32805;53.556;9.944;2022-09-27T14:08:03;1.63;;;0.70;;
17141;SDS011;32805;53.556;9.944;2022-09-27T14:10:43;3.15;;;1.08;;
17141;SDS011;32805;53.556;9.944;2022-09-27T14:13:29;3.70;;;1.00;;
17141;SDS011;32805;53.556;9.944;2022-09-27T14:16:06;1.10;;;1.00;;
17141;SDS011;32805;53.556;9.944;2022-09-27T14:19:38;3.47;;;0.90;;
17141;SDS011;32805;53.556;9.944;2022-09-27T14:22:20;2.50;;;0.98;;
17141;SDS011;32805;53.556;9.944;2022-09-27T14:24:55;2.92;;;1.60;;
17141;SDS011;32805;53.556;9.944;2022-09-27T14:27:37;2.17;;;1.10;;
17141;SDS011;32805;53.556;9.944;2022-09-27T14:30:25;1.50;;;1.10;;
17141;SDS011;32805;53.556;9.944;2022-09-27T14:33:25;2.17;;;1.30;;
17141;SDS011;32805;53.556;9.944;2022-09-27T14:36:02;1.17;;;1.08;;
17141;SDS011;32805;53.556;9.944;2022-09-27T14:38:57;2.92;;;1.35;;
17141;SDS011;32805;53.556;9.944;2022-09-27T14:41:34;1.95;;;1.35;;
17141;SDS011;32805;53.556;9.944;2022-09-27T14:44:04;2.25;;;1.35;;
17141;SDS011;32805;53.556;9.944;2022-09-27T14:46:40;3.35;;;1.58;;
17141;SDS011;32805;53.556;9.944;2022-09-27T14:49:17;1.48;;;1.20;;
17141;SDS011;32805;53.556;9.944;2022-09-27T14:51:50;2.33;;;1.55;;
17141;SDS011;32805;53.556;9.944;2022-09-27T14:54:20;2.13;;;1.45;;
17141;SDS011;32805;53.556;9.944;2022-09-27T14:56:51;4.20;;;1.60;;
17141;SDS011;32805;53.556;9.944;2022-09-27T14:59:22;4.07;;;1.30;;
17141;SDS011;32805;53.556;9.944;2022-09-27T15:01:56;2.35;;;1.20;;
17141;SDS011;32805;53.556;9.944;2022-09-27T15:04:27;1.45;;;1.00;;
17141;SDS011;32805;53.556;9.944;2022-09-27T15:06:57;1.20;;;0.80;;
17141;SDS011;32805;53.556;9.944;2022-09-27T15:09:28;2.55;;;1.05;;
17141;SDS011;32805;53.556;9.944;2022-09-27T15:11:58;2.60;;;0.90;;
17141;SDS011;32805;53.556;9.944;2022-09-27T15:14:31;1.77;;;0.90;;
17141;SDS011;32805;53.556;9.944;2022-09-27T15:17:11;1.45;;;0.88;;
17141;SDS011;32805;53.556;9.944;2022-09-27T15:19:54;2.08;;;1.13;;
17141;SDS011;32805;53.556;9.944;2022-09-27T15:22:34;1.45;;;1.10;;
17141;SDS011;32805;53.556;9.944;2022-09-27T15:25:14;1.17;;;0.90;;
17141;SDS011;32805;53.556;9.944;2022-09-27T15:27:48;1.23;;;1.00;;
17141;SDS011;32805;53.556;9.944;2022-09-27T15:30:20;0.75;;;0.73;;
17141;SDS011;32805;53.556;9.944;2022-09-27T15:33:00;1.52;;;0.95;;
17141;SDS011;32805;53.556;9.944;2022-09-27T15:35:32;1.50;;;0.90;;
17141;SDS011;32805;53.556;9.944;2022-09-27T15:38:12;3.95;;;2.00;;
17141;SDS011;32805;53.556;9.944;2022-09-27T15:40:57;6.50;;;1.92;;
17141;SDS011;32805;53.556;9.944;2022-09-27T15:43:36;4.15;;;1.95;;
17141;SDS011;32805;53.556;9.944;2022-09-27T15:46:25;3.95;;;1.70;;
17141;SDS011;32805;53.556;9.944;2022-09-27T15:49:17;5.03;;;1.70;;
17141;SDS011;32805;53.556;9.944;2022-09-27T15:51:48;1.42;;;0.95;;
17141;SDS011;32805;53.556;9.944;2022-09-27T15:54:17;1.85;;;1.10;;
17141;SDS011;32805;53.556;9.944;2022-09-27T15:56:45;4.32;;;1.05;;
17141;SDS011;32805;53.556;9.944;2022-09-27T15:59:21;6.50;;;1.60;;
17141;SDS011;32805;53.556;9.944;2022-09-27T16:01:54;3.60;;;2.00;;
17141;SDS011;32805;53.556;9.944;2022-09-27T16:04:24;1.80;;;1.02;;
17141;SDS011;32805;53.556;9.944;2022-09-27T16:06:52;1.88;;;0.93;;
17141;SDS011;32805;53.556;9.944;2022-09-27T16:09:20;7.95;;;3.20;;
17141;SDS011;32805;53.556;9.944;2022-09-27T16:11:48;8.35;;;4.63;;
17141;SDS011;32805;53.556;9.944;2022-09-27T16:14:16;3.30;;;1.63;;
17141;SDS011;32805;53.556;9.944;2022-09-27T16:16:45;5.47;;;1.77;;
17141;SDS011;32805;53.556;9.944;2022-09-27T16:19:17;5.50;;;1.73;;
17141;SDS011;32805;53.556;9.944;2022-09-27T16:21:45;3.15;;;1.60;;
17141;SDS011;32805;53.556;9.944;2022-09-27T16:24:14;1.83;;;1.13;;
17141;SDS011;32805;53.556;9.944;2022-09-27T16:26:43;1.70;;;0.90;;
17141;SDS011;32805;53.556;9.944;2022-09-27T16:29:12;2.88;;;1.08;;
17141;SDS011;32805;53.556;9.944;2022-09-27T16:31:41;3.95;;;1.30;;